sensor_id;sensor_type;location;lat;lon;timestamp;temperature;humidity
78619;DHT22;67941;52.506;5.470;2023-07-13T00:00:39;16.70;65.30
78619;DHT22;67941;52.506;5.470;2023-07-13T00:03:08;16.70;65.50
78619;DHT22;67941;52.506;5.470;2023-07-13T00:05:42;16.70;65.60
78619;DHT22;67941;52.506;5.470;2023-07-13T00:08:11;16.70;65.70
78619;DHT22;67941;52.506;5.470;2023-07-13T00:10:41;16.70;65.70
78619;DHT22;67941;52.506;5.470;2023-07-13T00:13:12;16.80;65.80
78619;DHT22;67941;52.506;5.470;2023-07-13T00:15:43;16.80;65.80
78619;DHT22;67941;52.506;5.470;2023-07-13T00:18:12;16.80;65.90
78619;DHT22;67941;52.506;5.470;2023-07-13T00:20:44;16.80;65.90
78619;DHT22;67941;52.506;5.470;2023-07-13T00:23:13;16.80;66.00
78619;DHT22;67941;52.506;5.470;2023-07-13T00:25:43;16.70;66.00
78619;DHT22;67941;52.506;5.470;2023-07-13T00:28:12;16.70;66.00
78619;DHT22;67941;52.506;5.470;2023-07-13T00:30:41;16.70;66.20
78619;DHT22;67941;52.506;5.470;2023-07-13T00:33:10;16.60;66.30
78619;DHT22;67941;52.506;5.470;2023-07-13T00:35:39;16.60;66.40
78619;DHT22;67941;52.506;5.470;2023-07-13T00:38:12;16.60;66.50
78619;DHT22;67941;52.506;5.470;2023-07-13T00:40:41;16.60;66.60
78619;DHT22;67941;52.506;5.470;2023-07-13T00:43:13;16.60;66.60
78619;DHT22;67941;52.506;5.470;2023-07-13T00:48:43;16.50;66.90
78619;DHT22;67941;52.506;5.470;2023-07-13T00:51:17;16.50;67.00
78619;DHT22;67941;52.506;5.470;2023-07-13T00:53:51;16.60;67.10
78619;DHT22;67941;52.506;5.470;2023-07-13T00:56:22;16.60;67.20
78619;DHT22;67941;52.506;5.470;2023-07-13T00:58:52;16.70;67.20
78619;DHT22;67941;52.506;5.470;2023-07-13T01:04:06;16.80;67.30
78619;DHT22;67941;52.506;5.470;2023-07-13T01:06:36;16.80;67.30
78619;DHT22;67941;52.506;5.470;2023-07-13T01:09:09;16.80;67.30
78619;DHT22;67941;52.506;5.470;2023-07-13T01:11:39;16.90;67.50
78619;DHT22;67941;52.506;5.470;2023-07-13T01:14:08;16.90;67.60
78619;DHT22;67941;52.506;5.470;2023-07-13T01:16:40;16.90;67.60
78619;DHT22;67941;52.506;5.470;2023-07-13T01:19:17;17.00;67.60
78619;DHT22;67941;52.506;5.470;2023-07-13T01:21:53;17.00;67.70
78619;DHT22;67941;52.506;5.470;2023-07-13T01:24:22;17.00;67.70
78619;DHT22;67941;52.506;5.470;2023-07-13T01:26:51;17.00;67.80
78619;DHT22;67941;52.506;5.470;2023-07-13T01:29:20;17.00;67.80
78619;DHT22;67941;52.506;5.470;2023-07-13T01:31:49;17.00;67.90
78619;DHT22;67941;52.506;5.470;2023-07-13T01:34:19;17.00;68.00
78619;DHT22;67941;52.506;5.470;2023-07-13T01:36:48;17.00;68.00
78619;DHT22;67941;52.506;5.470;2023-07-13T01:39:23;17.00;68.10
78619;DHT22;67941;52.506;5.470;2023-07-13T01:41:52;17.00;68.10
78619;DHT22;67941;52.506;5.470;2023-07-13T01:44:21;17.00;68.10
78619;DHT22;67941;52.506;5.470;2023-07-13T01:46:50;17.00;68.20
78619;DHT22;67941;52.506;5.470;2023-07-13T01:49:19;17.00;68.30
78619;DHT22;67941;52.506;5.470;2023-07-13T01:51:49;17.00;68.40
78619;DHT22;67941;52.506;5.470;2023-07-13T01:54:18;16.90;68.40
78619;DHT22;67941;52.506;5.470;2023-07-13T01:56:50;16.90;68.50
78619;DHT22;67941;52.506;5.470;2023-07-13T01:59:19;16.90;68.60
78619;DHT22;67941;52.506;5.470;2023-07-13T02:01:48;16.80;68.70
78619;DHT22;67941;52.506;5.470;2023-07-13T02:04:17;16.80;68.70
78619;DHT22;67941;52.506;5.470;2023-07-13T02:06:46;16.80;68.80
78619;DHT22;67941;52.506;5.470;2023-07-13T02:09:15;16.80;68.90
78619;DHT22;67941;52.506;5.470;2023-07-13T02:11:45;16.70;69.00
78619;DHT22;67941;52.506;5.470;2023-07-13T02:14:17;16.70;69.00
78619;DHT22;67941;52.506;5.470;2023-07-13T02:16:46;16.80;69.20
78619;DHT22;67941;52.506;5.470;2023-07-13T02:19:15;16.80;69.30
78619;DHT22;67941;52.506;5.470;2023-07-13T02:21:44;16.80;69.30
78619;DHT22;67941;52.506;5.470;2023-07-13T02:24:14;16.80;69.40
78619;DHT22;67941;52.506;5.470;2023-07-13T02:26:47;16.80;69.30
78619;DHT22;67941;52.506;5.470;2023-07-13T02:29:19;16.80;69.30
78619;DHT22;67941;52.506;5.470;2023-07-13T02:31:48;16.80;69.30
78619;DHT22;67941;52.506;5.470;2023-07-13T02:34:17;16.70;69.30
78619;DHT22;67941;52.506;5.470;2023-07-13T02:36:46;16.60;69.40
78619;DHT22;67941;52.506;5.470;2023-07-13T02:39:15;16.60;69.50
78619;DHT22;67941;52.506;5.470;2023-07-13T02:41:44;16.50;69.60
78619;DHT22;67941;52.506;5.470;2023-07-13T02:44:14;16.40;69.60
78619;DHT22;67941;52.506;5.470;2023-07-13T02:46:46;16.40;69.70
78619;DHT22;67941;52.506;5.470;2023-07-13T02:49:15;16.20;69.70
78619;DHT22;67941;52.506;5.470;2023-07-13T02:51:44;16.10;69.90
78619;DHT22;67941;52.506;5.470;2023-07-13T02:54:13;16.10;69.90
78619;DHT22;67941;52.506;5.470;2023-07-13T02:56:43;16.00;70.00
78619;DHT22;67941;52.506;5.470;2023-07-13T02:59:12;16.00;70.10
78619;DHT22;67941;52.506;5.470;2023-07-13T03:01:41;16.00;70.20
78619;DHT22;67941;52.506;5.470;2023-07-13T03:04:13;16.00;70.20
78619;DHT22;67941;52.506;5.470;2023-07-13T03:06:45;16.00;70.30
78619;DHT22;67941;52.506;5.470;2023-07-13T03:09:15;15.90;70.30
78619;DHT22;67941;52.506;5.470;2023-07-13T03:11:52;15.80;70.30
78619;DHT22;67941;52.506;5.470;2023-07-13T03:14:32;15.80;70.40
78619;DHT22;67941;52.506;5.470;2023-07-13T03:17:04;15.80;70.50
78619;DHT22;67941;52.506;5.470;2023-07-13T03:19:40;15.80;70.50
78619;DHT22;67941;52.506;5.470;2023-07-13T03:22:10;15.80;70.50
78619;DHT22;67941;52.506;5.470;2023-07-13T03:24:41;15.80;70.50
78619;DHT22;67941;52.506;5.470;2023-07-13T03:27:10;15.80;70.60
78619;DHT22;67941;52.506;5.470;2023-07-13T03:29:42;15.80;70.70
78619;DHT22;67941;52.506;5.470;2023-07-13T03:32:12;15.80;70.70
78619;DHT22;67941;52.506;5.470;2023-07-13T03:34:44;15.80;70.80
78619;DHT22;67941;52.506;5.470;2023-07-13T03:37:13;15.80;70.80
78619;DHT22;67941;52.506;5.470;2023-07-13T03:39:43;15.90;70.80
78619;DHT22;67941;52.506;5.470;2023-07-13T03:42:12;15.90;70.80
78619;DHT22;67941;52.506;5.470;2023-07-13T03:44:41;16.00;70.80
78619;DHT22;67941;52.506;5.470;2023-07-13T03:47:12;16.00;70.80
78619;DHT22;67941;52.506;5.470;2023-07-13T03:49:44;16.00;70.80
78619;DHT22;67941;52.506;5.470;2023-07-13T03:52:25;16.00;70.90
78619;DHT22;67941;52.506;5.470;2023-07-13T03:54:55;16.00;70.90
78619;DHT22;67941;52.506;5.470;2023-07-13T03:57:25;16.10;70.90
78619;DHT22;67941;52.506;5.470;2023-07-13T03:59:54;16.10;71.00
78619;DHT22;67941;52.506;5.470;2023-07-13T04:02:23;16.10;71.00
78619;DHT22;67941;52.506;5.470;2023-07-13T04:04:56;16.20;70.90
78619;DHT22;67941;52.506;5.470;2023-07-13T04:07:25;16.20;71.00
78619;DHT22;67941;52.506;5.470;2023-07-13T04:09:54;16.20;71.00
78619;DHT22;67941;52.506;5.470;2023-07-13T04:12:24;16.20;70.90
78619;DHT22;67941;52.506;5.470;2023-07-13T04:14:53;16.20;70.90
78619;DHT22;67941;52.506;5.470;2023-07-13T04:17:22;16.20;70.90
78619;DHT22;67941;52.506;5.470;2023-07-13T04:19:51;16.20;71.00
78619;DHT22;67941;52.506;5.470;2023-07-13T04:22:23;16.20;71.00
78619;DHT22;67941;52.506;5.470;2023-07-13T04:24:52;16.20;71.00
78619;DHT22;67941;52.506;5.470;2023-07-13T04:27:21;16.20;71.00
78619;DHT22;67941;52.506;5.470;2023-07-13T04:29:50;16.20;71.00
78619;DHT22;67941;52.506;5.470;2023-07-13T04:32:19;16.20;71.00
78619;DHT22;67941;52.506;5.470;2023-07-13T04:34:48;16.20;71.10
78619;DHT22;67941;52.506;5.470;2023-07-13T04:37:23;16.30;71.10
78619;DHT22;67941;52.506;5.470;2023-07-13T04:39:52;16.40;71.10
78619;DHT22;67941;52.506;5.470;2023-07-13T04:42:21;16.40;71.10
78619;DHT22;67941;52.506;5.470;2023-07-13T04:44:52;16.50;71.20
78619;DHT22;67941;52.506;5.470;2023-07-13T04:47:21;16.60;71.10
78619;DHT22;67941;52.506;5.470;2023-07-13T04:49:50;16.70;71.20
78619;DHT22;67941;52.506;5.470;2023-07-13T04:52:19;16.80;71.40
78619;DHT22;67941;52.506;5.470;2023-07-13T04:54:51;17.00;71.50
78619;DHT22;67941;52.506;5.470;2023-07-13T04:57:20;17.40;71.60
78619;DHT22;67941;52.506;5.470;2023-07-13T04:59:49;17.80;71.40
78619;DHT22;67941;52.506;5.470;2023-07-13T05:02:19;18.30;71.10
78619;DHT22;67941;52.506;5.470;2023-07-13T05:04:49;18.80;70.70
78619;DHT22;67941;52.506;5.470;2023-07-13T05:07:18;19.30;70.30
78619;DHT22;67941;52.506;5.470;2023-07-13T05:09:50;19.70;70.00
78619;DHT22;67941;52.506;5.470;2023-07-13T05:12:19;20.00;69.60
78619;DHT22;67941;52.506;5.470;2023-07-13T05:14:48;20.20;69.40
78619;DHT22;67941;52.506;5.470;2023-07-13T05:17:17;20.40;69.20
78619;DHT22;67941;52.506;5.470;2023-07-13T05:19:47;20.50;69.10
78619;DHT22;67941;52.506;5.470;2023-07-13T05:22:16;20.30;69.10
78619;DHT22;67941;52.506;5.470;2023-07-13T05:24:45;20.30;69.20
78619;DHT22;67941;52.506;5.470;2023-07-13T05:27:16;20.30;69.20
78619;DHT22;67941;52.506;5.470;2023-07-13T05:29:45;20.30;69.20
78619;DHT22;67941;52.506;5.470;2023-07-13T05:32:14;20.30;69.40
78619;DHT22;67941;52.506;5.470;2023-07-13T05:34:44;20.40;69.40
78619;DHT22;67941;52.506;5.470;2023-07-13T05:37:13;20.60;69.20
78619;DHT22;67941;52.506;5.470;2023-07-13T05:39:42;20.70;68.90
78619;DHT22;67941;52.506;5.470;2023-07-13T05:42:11;20.70;68.80
78619;DHT22;67941;52.506;5.470;2023-07-13T05:44:42;20.70;68.70
78619;DHT22;67941;52.506;5.470;2023-07-13T05:47:11;20.60;68.70
78619;DHT22;67941;52.506;5.470;2023-07-13T05:49:41;20.50;68.60
78619;DHT22;67941;52.506;5.470;2023-07-13T05:52:10;20.30;68.70
78619;DHT22;67941;52.506;5.470;2023-07-13T05:54:39;20.10;68.90
78619;DHT22;67941;52.506;5.470;2023-07-13T05:57:08;19.90;68.90
78619;DHT22;67941;52.506;5.470;2023-07-13T05:59:37;19.80;69.10
78619;DHT22;67941;52.506;5.470;2023-07-13T06:02:10;19.70;69.20
78619;DHT22;67941;52.506;5.470;2023-07-13T06:04:39;19.60;69.30
78619;DHT22;67941;52.506;5.470;2023-07-13T06:07:08;19.50;69.40
78619;DHT22;67941;52.506;5.470;2023-07-13T06:09:37;19.50;69.50
78619;DHT22;67941;52.506;5.470;2023-07-13T06:12:08;19.50;69.50
78619;DHT22;67941;52.506;5.470;2023-07-13T06:14:37;19.50;69.50
78619;DHT22;67941;52.506;5.470;2023-07-13T06:17:07;19.50;69.50
78619;DHT22;67941;52.506;5.470;2023-07-13T06:19:39;19.50;69.50
78619;DHT22;67941;52.506;5.470;2023-07-13T06:22:08;19.50;69.50
78619;DHT22;67941;52.506;5.470;2023-07-13T06:24:37;19.50;69.40
78619;DHT22;67941;52.506;5.470;2023-07-13T06:27:06;19.50;69.50
78619;DHT22;67941;52.506;5.470;2023-07-13T06:29:35;19.50;69.50
78619;DHT22;67941;52.506;5.470;2023-07-13T06:32:07;19.50;69.60
78619;DHT22;67941;52.506;5.470;2023-07-13T06:34:38;19.50;69.60
78619;DHT22;67941;52.506;5.470;2023-07-13T06:37:08;19.50;69.60
78619;DHT22;67941;52.506;5.470;2023-07-13T06:39:37;19.60;69.70
78619;DHT22;67941;52.506;5.470;2023-07-13T06:42:07;19.70;69.70
78619;DHT22;67941;52.506;5.470;2023-07-13T06:44:37;19.70;69.70
78619;DHT22;67941;52.506;5.470;2023-07-13T06:47:07;19.90;69.70
78619;DHT22;67941;52.506;5.470;2023-07-13T06:49:38;20.00;69.70
78619;DHT22;67941;52.506;5.470;2023-07-13T06:52:07;20.10;69.70
78619;DHT22;67941;52.506;5.470;2023-07-13T06:54:36;20.30;69.70
78619;DHT22;67941;52.506;5.470;2023-07-13T06:57:06;20.40;69.60
78619;DHT22;67941;52.506;5.470;2023-07-13T06:59:35;20.60;69.50
78619;DHT22;67941;52.506;5.470;2023-07-13T07:02:05;20.80;69.40
78619;DHT22;67941;52.506;5.470;2023-07-13T07:04:35;20.90;69.10
78619;DHT22;67941;52.506;5.470;2023-07-13T07:07:06;21.00;68.90
78619;DHT22;67941;52.506;5.470;2023-07-13T07:09:35;21.00;68.90
78619;DHT22;67941;52.506;5.470;2023-07-13T07:12:05;21.10;68.90
78619;DHT22;67941;52.506;5.470;2023-07-13T07:14:34;21.30;68.90
78619;DHT22;67941;52.506;5.470;2023-07-13T07:17:04;21.40;69.00
78619;DHT22;67941;52.506;5.470;2023-07-13T07:19:35;21.50;68.90
78619;DHT22;67941;52.506;5.470;2023-07-13T07:22:07;21.70;68.80
78619;DHT22;67941;52.506;5.470;2023-07-13T07:24:36;21.90;68.50
78619;DHT22;67941;52.506;5.470;2023-07-13T07:27:05;21.90;68.30
78619;DHT22;67941;52.506;5.470;2023-07-13T07:29:34;22.00;68.20
78619;DHT22;67941;52.506;5.470;2023-07-13T07:32:04;22.10;68.20
78619;DHT22;67941;52.506;5.470;2023-07-13T07:34:33;22.20;68.10
78619;DHT22;67941;52.506;5.470;2023-07-13T07:37:06;22.30;67.90
78619;DHT22;67941;52.506;5.470;2023-07-13T07:39:35;22.30;67.60
78619;DHT22;67941;52.506;5.470;2023-07-13T07:42:05;22.30;67.40
78619;DHT22;67941;52.506;5.470;2023-07-13T07:44:34;22.20;67.20
78619;DHT22;67941;52.506;5.470;2023-07-13T07:47:04;22.10;66.90
78619;DHT22;67941;52.506;5.470;2023-07-13T07:49:33;21.90;66.60
78619;DHT22;67941;52.506;5.470;2023-07-13T07:52:03;21.70;66.60
78619;DHT22;67941;52.506;5.470;2023-07-13T07:54:35;21.50;66.60
78619;DHT22;67941;52.506;5.470;2023-07-13T07:57:05;21.40;66.70
78619;DHT22;67941;52.506;5.470;2023-07-13T07:59:34;21.30;66.70
78619;DHT22;67941;52.506;5.470;2023-07-13T08:02:04;21.10;66.60
78619;DHT22;67941;52.506;5.470;2023-07-13T08:04:33;21.10;66.50
78619;DHT22;67941;52.506;5.470;2023-07-13T08:07:02;20.90;66.50
78619;DHT22;67941;52.506;5.470;2023-07-13T08:09:34;20.80;66.50
78619;DHT22;67941;52.506;5.470;2023-07-13T08:12:04;20.70;66.50
78619;DHT22;67941;52.506;5.470;2023-07-13T08:14:33;20.60;66.50
78619;DHT22;67941;52.506;5.470;2023-07-13T08:17:02;20.50;66.40
78619;DHT22;67941;52.506;5.470;2023-07-13T08:19:31;20.30;66.50
78619;DHT22;67941;52.506;5.470;2023-07-13T08:22:00;20.30;66.70
78619;DHT22;67941;52.506;5.470;2023-07-13T08:24:29;20.30;67.00
78619;DHT22;67941;52.506;5.470;2023-07-13T08:27:01;20.50;67.00
78619;DHT22;67941;52.506;5.470;2023-07-13T08:29:30;20.60;66.80
78619;DHT22;67941;52.506;5.470;2023-07-13T08:32:00;20.70;66.70
78619;DHT22;67941;52.506;5.470;2023-07-13T08:34:29;20.80;66.50
78619;DHT22;67941;52.506;5.470;2023-07-13T08:36:58;20.90;66.40
78619;DHT22;67941;52.506;5.470;2023-07-13T08:39:27;20.90;66.30
78619;DHT22;67941;52.506;5.470;2023-07-13T08:42:04;21.00;66.20
78619;DHT22;67941;52.506;5.470;2023-07-13T08:44:43;21.00;66.10
78619;DHT22;67941;52.506;5.470;2023-07-13T08:47:15;21.10;65.80
78619;DHT22;67941;52.506;5.470;2023-07-13T08:49:46;21.10;65.80
78619;DHT22;67941;52.506;5.470;2023-07-13T08:52:23;21.00;65.60
78619;DHT22;67941;52.506;5.470;2023-07-13T08:54:56;21.00;65.50
78619;DHT22;67941;52.506;5.470;2023-07-13T08:57:33;21.10;65.50
78619;DHT22;67941;52.506;5.470;2023-07-13T09:00:03;21.10;65.50
78619;DHT22;67941;52.506;5.470;2023-07-13T09:02:42;21.40;65.40
78619;DHT22;67941;52.506;5.470;2023-07-13T09:05:14;21.50;65.10
78619;DHT22;67941;52.506;5.470;2023-07-13T09:08:01;21.70;64.90
78619;DHT22;67941;52.506;5.470;2023-07-13T09:10:35;21.90;64.50
78619;DHT22;67941;52.506;5.470;2023-07-13T09:13:21;21.80;64.20
78619;DHT22;67941;52.506;5.470;2023-07-13T09:15:53;21.70;64.10
78619;DHT22;67941;52.506;5.470;2023-07-13T09:18:26;21.50;64.10
78619;DHT22;67941;52.506;5.470;2023-07-13T09:20:58;21.40;64.10
78619;DHT22;67941;52.506;5.470;2023-07-13T09:23:29;21.30;64.20
78619;DHT22;67941;52.506;5.470;2023-07-13T09:26:02;21.10;64.30
78619;DHT22;67941;52.506;5.470;2023-07-13T09:28:39;21.10;64.10
78619;DHT22;67941;52.506;5.470;2023-07-13T09:31:15;21.10;64.30
78619;DHT22;67941;52.506;5.470;2023-07-13T09:33:44;21.20;64.40
78619;DHT22;67941;52.506;5.470;2023-07-13T09:36:19;21.40;64.10
78619;DHT22;67941;52.506;5.470;2023-07-13T09:38:53;21.50;63.80
78619;DHT22;67941;52.506;5.470;2023-07-13T09:41:31;21.50;63.80
78619;DHT22;67941;52.506;5.470;2023-07-13T09:44:13;21.70;64.00
78619;DHT22;67941;52.506;5.470;2023-07-13T09:46:45;21.90;63.70
78619;DHT22;67941;52.506;5.470;2023-07-13T09:49:14;22.00;63.30
78619;DHT22;67941;52.506;5.470;2023-07-13T09:51:43;21.90;63.10
78619;DHT22;67941;52.506;5.470;2023-07-13T09:54:21;21.90;63.00
78619;DHT22;67941;52.506;5.470;2023-07-13T09:56:56;21.90;62.90
78619;DHT22;67941;52.506;5.470;2023-07-13T09:59:33;21.90;62.80
78619;DHT22;67941;52.506;5.470;2023-07-13T10:02:23;21.90;62.70
78619;DHT22;67941;52.506;5.470;2023-07-13T10:04:56;22.00;62.70
78619;DHT22;67941;52.506;5.470;2023-07-13T10:07:27;22.10;62.60
78619;DHT22;67941;52.506;5.470;2023-07-13T10:09:58;22.30;62.50
78619;DHT22;67941;52.506;5.470;2023-07-13T10:12:30;22.50;62.10
78619;DHT22;67941;52.506;5.470;2023-07-13T10:15:14;22.60;61.70
78619;DHT22;67941;52.506;5.470;2023-07-13T10:17:45;22.50;61.60
78619;DHT22;67941;52.506;5.470;2023-07-13T10:20:15;22.50;61.50
78619;DHT22;67941;52.506;5.470;2023-07-13T10:22:49;22.30;61.40
78619;DHT22;67941;52.506;5.470;2023-07-13T10:25:22;22.20;61.30
78619;DHT22;67941;52.506;5.470;2023-07-13T10:27:54;22.10;61.30
78619;DHT22;67941;52.506;5.470;2023-07-13T10:30:31;22.00;61.40
78619;DHT22;67941;52.506;5.470;2023-07-13T10:33:02;22.00;61.30
78619;DHT22;67941;52.506;5.470;2023-07-13T10:35:32;21.90;61.20
78619;DHT22;67941;52.506;5.470;2023-07-13T10:38:04;21.90;61.10
78619;DHT22;67941;52.506;5.470;2023-07-13T10:40:38;21.90;61.00
78619;DHT22;67941;52.506;5.470;2023-07-13T10:43:12;22.00;60.90
78619;DHT22;67941;52.506;5.470;2023-07-13T10:45:48;22.10;60.80
78619;DHT22;67941;52.506;5.470;2023-07-13T10:48:17;22.10;60.70
78619;DHT22;67941;52.506;5.470;2023-07-13T10:50:49;22.10;60.60
78619;DHT22;67941;52.506;5.470;2023-07-13T10:53:20;22.10;60.50
78619;DHT22;67941;52.506;5.470;2023-07-13T10:56:01;22.20;60.50
78619;DHT22;67941;52.506;5.470;2023-07-13T10:58:34;22.30;60.40
78619;DHT22;67941;52.506;5.470;2023-07-13T11:01:08;22.40;60.30
78619;DHT22;67941;52.506;5.470;2023-07-13T11:03:47;22.50;60.10
78619;DHT22;67941;52.506;5.470;2023-07-13T11:06:33;22.50;59.90
78619;DHT22;67941;52.506;5.470;2023-07-13T11:09:19;22.50;59.70
78619;DHT22;67941;52.506;5.470;2023-07-13T11:11:59;22.50;59.70
78619;DHT22;67941;52.506;5.470;2023-07-13T11:14:32;22.50;59.70
78619;DHT22;67941;52.506;5.470;2023-07-13T11:20:30;22.50;59.30
78619;DHT22;67941;52.506;5.470;2023-07-13T11:29:24;22.40;59.20
78619;DHT22;67941;52.506;5.470;2023-07-13T11:31:56;22.40;59.20
78619;DHT22;67941;52.506;5.470;2023-07-13T11:34:30;22.30;59.20
78619;DHT22;67941;52.506;5.470;2023-07-13T11:37:03;22.40;59.10
78619;DHT22;67941;52.506;5.470;2023-07-13T11:39:33;22.50;59.00
78619;DHT22;67941;52.506;5.470;2023-07-13T11:42:07;22.50;59.00
78619;DHT22;67941;52.506;5.470;2023-07-13T11:44:42;22.50;58.90
78619;DHT22;67941;52.506;5.470;2023-07-13T11:47:17;22.50;58.70
78619;DHT22;67941;52.506;5.470;2023-07-13T11:49:51;22.40;58.60
78619;DHT22;67941;52.506;5.470;2023-07-13T11:52:33;22.30;58.70
78619;DHT22;67941;52.506;5.470;2023-07-13T11:55:12;22.30;58.60
78619;DHT22;67941;52.506;5.470;2023-07-13T11:57:45;22.30;58.70
78619;DHT22;67941;52.506;5.470;2023-07-13T12:00:18;22.40;58.70
78619;DHT22;67941;52.506;5.470;2023-07-13T12:02:51;22.50;58.50
78619;DHT22;67941;52.506;5.470;2023-07-13T12:05:21;22.50;58.40
78619;DHT22;67941;52.506;5.470;2023-07-13T12:07:53;22.50;58.30
78619;DHT22;67941;52.506;5.470;2023-07-13T12:10:24;22.50;58.30
78619;DHT22;67941;52.506;5.470;2023-07-13T12:12:55;22.60;58.20
78619;DHT22;67941;52.506;5.470;2023-07-13T12:15:29;22.60;58.20
78619;DHT22;67941;52.506;5.470;2023-07-13T12:17:59;22.50;58.10
78619;DHT22;67941;52.506;5.470;2023-07-13T12:20:35;22.50;58.10
78619;DHT22;67941;52.506;5.470;2023-07-13T12:23:22;22.50;58.10
78619;DHT22;67941;52.506;5.470;2023-07-13T12:25:53;22.50;58.10
78619;DHT22;67941;52.506;5.470;2023-07-13T12:28:28;22.60;57.90
78619;DHT22;67941;52.506;5.470;2023-07-13T12:31:01;22.60;57.90
78619;DHT22;67941;52.506;5.470;2023-07-13T12:33:31;22.60;57.90
78619;DHT22;67941;52.506;5.470;2023-07-13T12:36:02;22.50;57.90
78619;DHT22;67941;52.506;5.470;2023-07-13T12:38:34;22.60;58.00
78619;DHT22;67941;52.506;5.470;2023-07-13T12:41:03;22.60;57.90
78619;DHT22;67941;52.506;5.470;2023-07-13T12:43:35;22.70;57.80
78619;DHT22;67941;52.506;5.470;2023-07-13T12:46:18;22.70;57.70
78619;DHT22;67941;52.506;5.470;2023-07-13T12:48:52;22.70;57.50
78619;DHT22;67941;52.506;5.470;2023-07-13T12:51:25;22.60;57.50
78619;DHT22;67941;52.506;5.470;2023-07-13T12:54:11;22.60;57.50
78619;DHT22;67941;52.506;5.470;2023-07-13T12:56:41;22.60;57.40
78619;DHT22;67941;52.506;5.470;2023-07-13T12:59:17;22.60;57.40
78619;DHT22;67941;52.506;5.470;2023-07-13T13:01:48;22.60;57.40
78619;DHT22;67941;52.506;5.470;2023-07-13T13:04:19;22.60;57.30
78619;DHT22;67941;52.506;5.470;2023-07-13T13:07:00;22.60;57.30
78619;DHT22;67941;52.506;5.470;2023-07-13T13:09:33;22.60;57.20
78619;DHT22;67941;52.506;5.470;2023-07-13T13:12:02;22.60;57.20
78619;DHT22;67941;52.506;5.470;2023-07-13T13:14:32;22.70;57.10
78619;DHT22;67941;52.506;5.470;2023-07-13T13:17:02;22.70;57.10
78619;DHT22;67941;52.506;5.470;2023-07-13T13:19:33;22.70;57.20
78619;DHT22;67941;52.506;5.470;2023-07-13T13:22:02;22.70;57.20
78619;DHT22;67941;52.506;5.470;2023-07-13T13:24:34;22.90;57.20
78619;DHT22;67941;52.506;5.470;2023-07-13T13:27:04;23.00;57.10
78619;DHT22;67941;52.506;5.470;2023-07-13T13:29:36;23.20;56.90
78619;DHT22;67941;52.506;5.470;2023-07-13T13:32:08;23.20;56.80
78619;DHT22;67941;52.506;5.470;2023-07-13T13:34:38;23.20;56.80
78619;DHT22;67941;52.506;5.470;2023-07-13T13:37:17;23.20;56.90
78619;DHT22;67941;52.506;5.470;2023-07-13T13:39:49;23.10;56.90
78619;DHT22;67941;52.506;5.470;2023-07-13T13:42:19;23.10;56.80
78619;DHT22;67941;52.506;5.470;2023-07-13T13:44:51;23.00;56.70
78619;DHT22;67941;52.506;5.470;2023-07-13T13:47:30;23.00;56.80
78619;DHT22;67941;52.506;5.470;2023-07-13T13:50:01;22.90;56.90
78619;DHT22;67941;52.506;5.470;2023-07-13T13:52:30;22.90;56.90
78619;DHT22;67941;52.506;5.470;2023-07-13T13:55:04;22.90;56.90
78619;DHT22;67941;52.506;5.470;2023-07-13T13:57:33;22.90;57.00
78619;DHT22;67941;52.506;5.470;2023-07-13T14:00:03;22.90;57.00
78619;DHT22;67941;52.506;5.470;2023-07-13T14:02:33;22.90;56.90
78619;DHT22;67941;52.506;5.470;2023-07-13T14:05:03;22.90;56.90
78619;DHT22;67941;52.506;5.470;2023-07-13T14:07:34;22.90;56.90
78619;DHT22;67941;52.506;5.470;2023-07-13T14:10:12;22.90;56.90
78619;DHT22;67941;52.506;5.470;2023-07-13T14:12:42;22.90;57.00
78619;DHT22;67941;52.506;5.470;2023-07-13T14:15:18;22.90;56.90
78619;DHT22;67941;52.506;5.470;2023-07-13T14:17:48;22.90;56.90
78619;DHT22;67941;52.506;5.470;2023-07-13T14:20:20;22.90;56.90
78619;DHT22;67941;52.506;5.470;2023-07-13T14:22:50;22.90;56.90
78619;DHT22;67941;52.506;5.470;2023-07-13T14:25:23;22.80;56.90
78619;DHT22;67941;52.506;5.470;2023-07-13T14:27:55;22.80;56.80
78619;DHT22;67941;52.506;5.470;2023-07-13T14:30:26;22.80;56.80
78619;DHT22;67941;52.506;5.470;2023-07-13T14:32:55;22.80;56.80
78619;DHT22;67941;52.506;5.470;2023-07-13T14:35:24;22.80;56.90
78619;DHT22;67941;52.506;5.470;2023-07-13T14:37:54;22.80;56.90
78619;DHT22;67941;52.506;5.470;2023-07-13T14:40:29;22.80;56.80
78619;DHT22;67941;52.506;5.470;2023-07-13T14:42:58;22.80;56.90
78619;DHT22;67941;52.506;5.470;2023-07-13T14:45:31;22.90;56.80
78619;DHT22;67941;52.506;5.470;2023-07-13T14:48:00;22.90;56.90
78619;DHT22;67941;52.506;5.470;2023-07-13T14:50:31;22.90;56.90
78619;DHT22;67941;52.506;5.470;2023-07-13T14:53:02;23.00;56.70
78619;DHT22;67941;52.506;5.470;2023-07-13T14:55:33;23.00;56.80
78619;DHT22;67941;52.506;5.470;2023-07-13T14:58:02;23.10;56.80
78619;DHT22;67941;52.506;5.470;2023-07-13T15:00:32;23.10;56.70
78619;DHT22;67941;52.506;5.470;2023-07-13T15:03:01;23.10;56.70
78619;DHT22;67941;52.506;5.470;2023-07-13T15:05:32;23.10;56.70
78619;DHT22;67941;52.506;5.470;2023-07-13T15:08:03;23.10;56.70
78619;DHT22;67941;52.506;5.470;2023-07-13T15:10:35;23.10;56.70
78619;DHT22;67941;52.506;5.470;2023-07-13T15:13:14;23.00;56.80
78619;DHT22;67941;52.506;5.470;2023-07-13T15:15:45;22.90;56.90
78619;DHT22;67941;52.506;5.470;2023-07-13T15:18:17;22.90;56.80
78619;DHT22;67941;52.506;5.470;2023-07-13T15:20:49;23.00;56.90
78619;DHT22;67941;52.506;5.470;2023-07-13T15:23:22;22.90;56.90
78619;DHT22;67941;52.506;5.470;2023-07-13T15:25:54;22.90;56.90
78619;DHT22;67941;52.506;5.470;2023-07-13T15:28:24;22.90;56.90
78619;DHT22;67941;52.506;5.470;2023-07-13T15:30:53;22.90;56.90
78619;DHT22;67941;52.506;5.470;2023-07-13T15:33:24;22.90;57.00
78619;DHT22;67941;52.506;5.470;2023-07-13T15:35:53;22.90;56.90
78619;DHT22;67941;52.506;5.470;2023-07-13T15:38:25;22.90;56.80
78619;DHT22;67941;52.506;5.470;2023-07-13T15:40:58;22.90;56.70
78619;DHT22;67941;52.506;5.470;2023-07-13T15:43:32;22.90;56.70
78619;DHT22;67941;52.506;5.470;2023-07-13T15:46:01;23.00;56.70
78619;DHT22;67941;52.506;5.470;2023-07-13T15:48:45;23.00;56.60
78619;DHT22;67941;52.506;5.470;2023-07-13T15:51:20;23.10;56.50
78619;DHT22;67941;52.506;5.470;2023-07-13T15:53:53;23.10;56.50
78619;DHT22;67941;52.506;5.470;2023-07-13T15:56:26;23.10;56.50
78619;DHT22;67941;52.506;5.470;2023-07-13T15:58:57;23.20;56.40
78619;DHT22;67941;52.506;5.470;2023-07-13T16:01:26;23.30;56.50
78619;DHT22;67941;52.506;5.470;2023-07-13T16:03:55;23.30;56.40
78619;DHT22;67941;52.506;5.470;2023-07-13T16:06:27;23.30;56.30
78619;DHT22;67941;52.506;5.470;2023-07-13T16:08:57;23.40;56.30
78619;DHT22;67941;52.506;5.470;2023-07-13T16:11:34;23.40;56.20